sensor_id;sensor_type;location;lat;lon;timestamp;P1;durP1;ratioP1;P2;durP2;ratioP2
27412;SDS011;14871;52.702;5.230;2023-06-22T00:00:27;35.88;;;25.63;;
27412;SDS011;14871;52.702;5.230;2023-06-22T00:02:53;40.97;;;28.52;;
27412;SDS011;14871;52.702;5.230;2023-06-22T00:05:18;35.50;;;26.23;;
27412;SDS011;14871;52.702;5.230;2023-06-22T00:07:44;35.90;;;25.85;;
27412;SDS011;14871;52.702;5.230;2023-06-22T00:10:10;33.33;;;26.13;;
27412;SDS011;14871;52.702;5.230;2023-06-22T00:12:35;32.75;;;25.48;;
27412;SDS011;14871;52.702;5.230;2023-06-22T00:15:01;36.30;;;26.48;;
27412;SDS011;14871;52.702;5.230;2023-06-22T00:17:27;36.50;;;26.67;;
27412;SDS011;14871;52.702;5.230;2023-06-22T00:19:52;35.03;;;26.83;;
27412;SDS011;14871;52.702;5.230;2023-06-22T00:22:20;34.70;;;27.00;;
27412;SDS011;14871;52.702;5.230;2023-06-22T00:24:53;37.00;;;27.73;;
27412;SDS011;14871;52.702;5.230;2023-06-22T00:27:20;33.58;;;26.02;;
27412;SDS011;14871;52.702;5.230;2023-06-22T00:29:45;37.00;;;28.25;;
27412;SDS011;14871;52.702;5.230;2023-06-22T00:32:11;40.80;;;29.83;;
27412;SDS011;14871;52.702;5.230;2023-06-22T00:34:37;38.53;;;29.40;;
27412;SDS011;14871;52.702;5.230;2023-06-22T00:37:02;39.90;;;28.58;;
27412;SDS011;14871;52.702;5.230;2023-06-22T00:39:28;37.08;;;28.67;;
27412;SDS011;14871;52.702;5.230;2023-06-22T00:41:54;37.75;;;27.25;;
27412;SDS011;14871;52.702;5.230;2023-06-22T00:44:20;38.80;;;29.70;;
27412;SDS011;14871;52.702;5.230;2023-06-22T00:46:45;36.97;;;29.48;;
27412;SDS011;14871;52.702;5.230;2023-06-22T00:49:11;35.65;;;27.77;;
27412;SDS011;14871;52.702;5.230;2023-06-22T00:51:37;38.55;;;28.45;;
27412;SDS011;14871;52.702;5.230;2023-06-22T00:54:03;37.10;;;27.08;;
27412;SDS011;14871;52.702;5.230;2023-06-22T00:56:30;36.90;;;28.75;;
27412;SDS011;14871;52.702;5.230;2023-06-22T00:58:57;34.72;;;26.80;;
27412;SDS011;14871;52.702;5.230;2023-06-22T01:01:25;39.72;;;28.55;;
27412;SDS011;14871;52.702;5.230;2023-06-22T01:03:51;37.80;;;27.95;;
27412;SDS011;14871;52.702;5.230;2023-06-22T01:06:19;35.22;;;27.10;;
27412;SDS011;14871;52.702;5.230;2023-06-22T01:11:31;42.28;;;28.67;;
27412;SDS011;14871;52.702;5.230;2023-06-22T01:14:05;38.38;;;27.38;;
27412;SDS011;14871;52.702;5.230;2023-06-22T01:16:36;33.75;;;26.08;;
27412;SDS011;14871;52.702;5.230;2023-06-22T01:19:29;34.70;;;26.13;;
27412;SDS011;14871;52.702;5.230;2023-06-22T01:22:00;34.22;;;26.02;;
27412;SDS011;14871;52.702;5.230;2023-06-22T01:24:32;32.45;;;24.35;;
27412;SDS011;14871;52.702;5.230;2023-06-22T01:27:12;32.42;;;25.75;;
27412;SDS011;14871;52.702;5.230;2023-06-22T01:29:40;32.33;;;24.33;;
27412;SDS011;14871;52.702;5.230;2023-06-22T01:32:08;31.90;;;25.05;;
27412;SDS011;14871;52.702;5.230;2023-06-22T01:34:36;33.55;;;24.52;;
27412;SDS011;14871;52.702;5.230;2023-06-22T01:37:05;33.35;;;24.95;;
27412;SDS011;14871;52.702;5.230;2023-06-22T01:39:31;35.38;;;25.98;;
27412;SDS011;14871;52.702;5.230;2023-06-22T01:41:57;33.50;;;25.48;;
27412;SDS011;14871;52.702;5.230;2023-06-22T01:44:24;31.70;;;25.42;;
27412;SDS011;14871;52.702;5.230;2023-06-22T01:46:50;33.53;;;25.48;;
27412;SDS011;14871;52.702;5.230;2023-06-22T01:49:17;31.98;;;25.50;;
27412;SDS011;14871;52.702;5.230;2023-06-22T01:51:43;34.90;;;25.45;;
27412;SDS011;14871;52.702;5.230;2023-06-22T01:54:09;32.80;;;24.58;;
27412;SDS011;14871;52.702;5.230;2023-06-22T01:56:34;34.85;;;25.55;;
27412;SDS011;14871;52.702;5.230;2023-06-22T02:02:00;33.67;;;25.98;;
27412;SDS011;14871;52.702;5.230;2023-06-22T02:05:11;34.40;;;24.38;;
27412;SDS011;14871;52.702;5.230;2023-06-22T02:07:29;34.95;;;26.10;;
27412;SDS011;14871;52.702;5.230;2023-06-22T02:09:58;34.17;;;25.80;;
27412;SDS011;14871;52.702;5.230;2023-06-22T02:12:26;33.20;;;25.67;;
27412;SDS011;14871;52.702;5.230;2023-06-22T02:14:53;36.35;;;25.15;;
27412;SDS011;14871;52.702;5.230;2023-06-22T02:17:19;35.22;;;26.05;;
27412;SDS011;14871;52.702;5.230;2023-06-22T02:19:46;32.28;;;25.75;;
27412;SDS011;14871;52.702;5.230;2023-06-22T02:22:11;31.77;;;25.63;;
27412;SDS011;14871;52.702;5.230;2023-06-22T02:24:38;31.65;;;24.88;;
27412;SDS011;14871;52.702;5.230;2023-06-22T02:27:04;30.85;;;24.55;;
27412;SDS011;14871;52.702;5.230;2023-06-22T02:29:32;32.67;;;24.25;;
27412;SDS011;14871;52.702;5.230;2023-06-22T02:31:58;30.52;;;24.58;;
27412;SDS011;14871;52.702;5.230;2023-06-22T02:34:23;31.90;;;24.67;;
27412;SDS011;14871;52.702;5.230;2023-06-22T02:36:49;35.30;;;26.70;;
27412;SDS011;14871;52.702;5.230;2023-06-22T02:39:20;36.67;;;26.02;;
27412;SDS011;14871;52.702;5.230;2023-06-22T02:41:47;35.65;;;25.05;;
27412;SDS011;14871;52.702;5.230;2023-06-22T02:44:17;33.30;;;24.58;;
27412;SDS011;14871;52.702;5.230;2023-06-22T02:46:43;32.00;;;25.00;;
27412;SDS011;14871;52.702;5.230;2023-06-22T02:49:09;38.13;;;25.17;;
27412;SDS011;14871;52.702;5.230;2023-06-22T02:51:37;30.40;;;23.48;;
27412;SDS011;14871;52.702;5.230;2023-06-22T02:54:04;33.10;;;25.55;;
27412;SDS011;14871;52.702;5.230;2023-06-22T02:56:31;31.58;;;24.10;;
27412;SDS011;14871;52.702;5.230;2023-06-22T02:58:56;30.55;;;23.95;;
27412;SDS011;14871;52.702;5.230;2023-06-22T03:01:29;31.02;;;24.80;;
27412;SDS011;14871;52.702;5.230;2023-06-22T03:04:03;34.33;;;25.30;;
27412;SDS011;14871;52.702;5.230;2023-06-22T03:06:29;29.75;;;23.55;;
27412;SDS011;14871;52.702;5.230;2023-06-22T03:09:03;30.02;;;24.13;;
27412;SDS011;14871;52.702;5.230;2023-06-22T03:11:33;33.15;;;25.05;;
27412;SDS011;14871;52.702;5.230;2023-06-22T03:14:00;32.47;;;24.55;;
27412;SDS011;14871;52.702;5.230;2023-06-22T03:16:27;34.85;;;24.83;;
27412;SDS011;14871;52.702;5.230;2023-06-22T03:18:53;32.10;;;25.23;;
27412;SDS011;14871;52.702;5.230;2023-06-22T03:21:19;32.92;;;25.75;;
27412;SDS011;14871;52.702;5.230;2023-06-22T03:23:47;32.03;;;24.77;;
27412;SDS011;14871;52.702;5.230;2023-06-22T03:26:12;34.60;;;25.55;;
27412;SDS011;14871;52.702;5.230;2023-06-22T03:28:38;32.90;;;25.38;;
27412;SDS011;14871;52.702;5.230;2023-06-22T03:31:04;31.50;;;23.60;;
27412;SDS011;14871;52.702;5.230;2023-06-22T03:33:31;32.90;;;25.02;;
27412;SDS011;14871;52.702;5.230;2023-06-22T03:35:57;29.90;;;24.10;;
27412;SDS011;14871;52.702;5.230;2023-06-22T03:38:23;30.77;;;24.17;;
27412;SDS011;14871;52.702;5.230;2023-06-22T03:40:48;28.70;;;23.80;;
27412;SDS011;14871;52.702;5.230;2023-06-22T03:43:14;34.53;;;25.30;;
27412;SDS011;14871;52.702;5.230;2023-06-22T03:45:40;34.72;;;25.25;;
27412;SDS011;14871;52.702;5.230;2023-06-22T03:48:05;31.27;;;24.67;;
27412;SDS011;14871;52.702;5.230;2023-06-22T03:50:31;33.63;;;25.90;;
27412;SDS011;14871;52.702;5.230;2023-06-22T03:52:57;37.92;;;26.65;;
27412;SDS011;14871;52.702;5.230;2023-06-22T03:55:22;30.23;;;25.90;;
27412;SDS011;14871;52.702;5.230;2023-06-22T03:57:48;33.22;;;26.08;;
27412;SDS011;14871;52.702;5.230;2023-06-22T04:00:14;31.02;;;24.85;;
27412;SDS011;14871;52.702;5.230;2023-06-22T04:02:42;32.53;;;25.58;;
27412;SDS011;14871;52.702;5.230;2023-06-22T04:05:08;39.20;;;29.75;;
27412;SDS011;14871;52.702;5.230;2023-06-22T04:07:34;38.83;;;29.48;;
27412;SDS011;14871;52.702;5.230;2023-06-22T04:10:02;40.20;;;31.05;;
27412;SDS011;14871;52.702;5.230;2023-06-22T04:12:29;38.58;;;28.90;;
27412;SDS011;14871;52.702;5.230;2023-06-22T04:14:54;37.40;;;29.73;;
27412;SDS011;14871;52.702;5.230;2023-06-22T04:17:20;36.00;;;29.45;;
27412;SDS011;14871;52.702;5.230;2023-06-22T04:19:46;33.17;;;28.15;;
27412;SDS011;14871;52.702;5.230;2023-06-22T04:22:11;37.50;;;29.65;;
27412;SDS011;14871;52.702;5.230;2023-06-22T04:24:37;37.80;;;29.92;;
27412;SDS011;14871;52.702;5.230;2023-06-22T04:27:03;37.80;;;30.35;;
27412;SDS011;14871;52.702;5.230;2023-06-22T04:29:29;41.35;;;28.88;;
27412;SDS011;14871;52.702;5.230;2023-06-22T04:31:58;40.88;;;31.02;;
27412;SDS011;14871;52.702;5.230;2023-06-22T04:34:28;44.40;;;33.10;;
27412;SDS011;14871;52.702;5.230;2023-06-22T04:36:54;38.75;;;30.50;;
27412;SDS011;14871;52.702;5.230;2023-06-22T04:39:20;46.92;;;31.58;;
27412;SDS011;14871;52.702;5.230;2023-06-22T04:41:46;41.13;;;30.70;;
27412;SDS011;14871;52.702;5.230;2023-06-22T04:44:16;43.22;;;33.13;;
27412;SDS011;14871;52.702;5.230;2023-06-22T04:46:49;43.17;;;33.60;;
27412;SDS011;14871;52.702;5.230;2023-06-22T04:49:20;42.90;;;32.03;;
27412;SDS011;14871;52.702;5.230;2023-06-22T04:51:47;42.15;;;33.25;;
27412;SDS011;14871;52.702;5.230;2023-06-22T04:54:13;41.97;;;33.30;;
27412;SDS011;14871;52.702;5.230;2023-06-22T04:56:39;44.20;;;34.97;;
27412;SDS011;14871;52.702;5.230;2023-06-22T04:59:06;44.63;;;35.95;;
27412;SDS011;14871;52.702;5.230;2023-06-22T05:01:32;44.65;;;35.92;;
27412;SDS011;14871;52.702;5.230;2023-06-22T05:04:00;42.50;;;34.70;;
27412;SDS011;14871;52.702;5.230;2023-06-22T05:06:26;53.50;;;38.15;;
27412;SDS011;14871;52.702;5.230;2023-06-22T05:08:56;48.33;;;37.85;;
27412;SDS011;14871;52.702;5.230;2023-06-22T05:11:25;46.45;;;37.13;;
27412;SDS011;14871;52.702;5.230;2023-06-22T05:13:52;50.03;;;36.42;;
27412;SDS011;14871;52.702;5.230;2023-06-22T05:16:18;48.53;;;36.70;;
27412;SDS011;14871;52.702;5.230;2023-06-22T05:18:48;48.28;;;34.38;;
27412;SDS011;14871;52.702;5.230;2023-06-22T05:21:24;46.03;;;34.50;;
27412;SDS011;14871;52.702;5.230;2023-06-22T05:23:51;44.05;;;33.70;;
27412;SDS011;14871;52.702;5.230;2023-06-22T05:26:18;47.47;;;35.85;;
27412;SDS011;14871;52.702;5.230;2023-06-22T05:28:45;46.78;;;36.78;;
27412;SDS011;14871;52.702;5.230;2023-06-22T05:31:15;48.38;;;35.70;;
27412;SDS011;14871;52.702;5.230;2023-06-22T05:33:41;44.00;;;35.03;;
27412;SDS011;14871;52.702;5.230;2023-06-22T05:36:08;44.47;;;35.95;;
27412;SDS011;14871;52.702;5.230;2023-06-22T05:38:34;43.65;;;35.28;;
27412;SDS011;14871;52.702;5.230;2023-06-22T05:41:01;43.95;;;37.63;;
27412;SDS011;14871;52.702;5.230;2023-06-22T05:43:27;48.35;;;36.22;;
27412;SDS011;14871;52.702;5.230;2023-06-22T05:45:53;43.42;;;35.17;;
27412;SDS011;14871;52.702;5.230;2023-06-22T05:48:19;41.15;;;32.47;;
27412;SDS011;14871;52.702;5.230;2023-06-22T05:50:44;35.53;;;29.60;;
27412;SDS011;14871;52.702;5.230;2023-06-22T05:53:10;35.50;;;27.67;;
27412;SDS011;14871;52.702;5.230;2023-06-22T05:55:36;38.13;;;28.88;;
27412;SDS011;14871;52.702;5.230;2023-06-22T05:58:01;35.72;;;27.50;;
27412;SDS011;14871;52.702;5.230;2023-06-22T06:00:28;32.65;;;25.80;;
27412;SDS011;14871;52.702;5.230;2023-06-22T06:02:54;33.67;;;24.90;;
27412;SDS011;14871;52.702;5.230;2023-06-22T06:05:20;27.75;;;24.02;;
27412;SDS011;14871;52.702;5.230;2023-06-22T06:07:46;33.25;;;24.45;;
27412;SDS011;14871;52.702;5.230;2023-06-22T06:10:12;31.15;;;24.73;;
27412;SDS011;14871;52.702;5.230;2023-06-22T06:12:38;32.45;;;26.70;;
27412;SDS011;14871;52.702;5.230;2023-06-22T06:15:04;32.38;;;26.50;;
27412;SDS011;14871;52.702;5.230;2023-06-22T06:17:30;27.92;;;24.20;;
27412;SDS011;14871;52.702;5.230;2023-06-22T06:19:56;29.17;;;24.10;;
27412;SDS011;14871;52.702;5.230;2023-06-22T06:22:21;26.60;;;21.70;;
27412;SDS011;14871;52.702;5.230;2023-06-22T06:24:48;31.05;;;22.15;;
27412;SDS011;14871;52.702;5.230;2023-06-22T06:27:14;25.85;;;20.95;;
27412;SDS011;14871;52.702;5.230;2023-06-22T06:29:43;26.45;;;21.20;;
27412;SDS011;14871;52.702;5.230;2023-06-22T06:32:10;26.70;;;19.70;;
27412;SDS011;14871;52.702;5.230;2023-06-22T06:34:37;26.80;;;21.75;;
27412;SDS011;14871;52.702;5.230;2023-06-22T06:37:03;29.55;;;21.77;;
27412;SDS011;14871;52.702;5.230;2023-06-22T06:39:28;26.30;;;21.75;;
27412;SDS011;14871;52.702;5.230;2023-06-22T06:41:54;28.02;;;21.38;;
27412;SDS011;14871;52.702;5.230;2023-06-22T06:44:20;28.50;;;20.83;;
27412;SDS011;14871;52.702;5.230;2023-06-22T06:46:46;26.27;;;21.10;;
27412;SDS011;14871;52.702;5.230;2023-06-22T06:49:12;26.85;;;19.08;;
27412;SDS011;14871;52.702;5.230;2023-06-22T06:51:38;25.35;;;18.98;;
27412;SDS011;14871;52.702;5.230;2023-06-22T06:54:04;23.40;;;18.73;;
27412;SDS011;14871;52.702;5.230;2023-06-22T06:56:29;19.35;;;17.30;;
27412;SDS011;14871;52.702;5.230;2023-06-22T06:58:55;23.25;;;17.77;;
27412;SDS011;14871;52.702;5.230;2023-06-22T07:01:21;20.27;;;16.67;;
27412;SDS011;14871;52.702;5.230;2023-06-22T07:03:46;22.10;;;17.50;;
27412;SDS011;14871;52.702;5.230;2023-06-22T07:06:13;19.45;;;16.30;;
27412;SDS011;14871;52.702;5.230;2023-06-22T07:08:39;23.50;;;16.67;;
27412;SDS011;14871;52.702;5.230;2023-06-22T07:11:05;19.05;;;15.32;;
27412;SDS011;14871;52.702;5.230;2023-06-22T07:13:30;20.77;;;15.60;;
27412;SDS011;14871;52.702;5.230;2023-06-22T07:15:56;18.60;;;13.75;;
27412;SDS011;14871;52.702;5.230;2023-06-22T07:18:22;18.33;;;14.32;;
27412;SDS011;14871;52.702;5.230;2023-06-22T07:20:49;17.35;;;13.45;;
27412;SDS011;14871;52.702;5.230;2023-06-22T07:23:14;19.00;;;13.32;;
27412;SDS011;14871;52.702;5.230;2023-06-22T07:25:40;16.75;;;14.82;;
27412;SDS011;14871;52.702;5.230;2023-06-22T07:28:06;17.52;;;14.35;;
27412;SDS011;14871;52.702;5.230;2023-06-22T07:30:32;17.58;;;13.68;;
27412;SDS011;14871;52.702;5.230;2023-06-22T07:32:59;18.90;;;13.82;;
27412;SDS011;14871;52.702;5.230;2023-06-22T07:35:29;18.60;;;14.93;;
27412;SDS011;14871;52.702;5.230;2023-06-22T07:37:56;16.98;;;13.90;;
27412;SDS011;14871;52.702;5.230;2023-06-22T07:40:21;19.02;;;13.57;;
27412;SDS011;14871;52.702;5.230;2023-06-22T07:42:47;19.88;;;13.63;;
27412;SDS011;14871;52.702;5.230;2023-06-22T07:45:17;19.23;;;13.85;;
27412;SDS011;14871;52.702;5.230;2023-06-22T07:47:43;21.02;;;14.50;;
27412;SDS011;14871;52.702;5.230;2023-06-22T07:50:09;17.65;;;13.45;;
27412;SDS011;14871;52.702;5.230;2023-06-22T07:52:35;16.98;;;14.00;;
27412;SDS011;14871;52.702;5.230;2023-06-22T07:55:01;15.40;;;12.70;;
27412;SDS011;14871;52.702;5.230;2023-06-22T07:57:27;15.55;;;13.43;;
27412;SDS011;14871;52.702;5.230;2023-06-22T07:59:57;15.88;;;14.18;;
27412;SDS011;14871;52.702;5.230;2023-06-22T08:02:23;15.80;;;12.73;;
27412;SDS011;14871;52.702;5.230;2023-06-22T08:04:49;19.50;;;14.00;;
27412;SDS011;14871;52.702;5.230;2023-06-22T08:07:15;17.25;;;14.77;;
27412;SDS011;14871;52.702;5.230;2023-06-22T08:09:45;20.25;;;14.07;;
27412;SDS011;14871;52.702;5.230;2023-06-22T08:12:12;18.27;;;14.43;;
27412;SDS011;14871;52.702;5.230;2023-06-22T08:14:38;20.13;;;13.88;;
27412;SDS011;14871;52.702;5.230;2023-06-22T08:17:03;15.90;;;12.25;;
27412;SDS011;14871;52.702;5.230;2023-06-22T08:19:30;16.80;;;13.73;;
27412;SDS011;14871;52.702;5.230;2023-06-22T08:21:56;18.20;;;15.07;;
27412;SDS011;14871;52.702;5.230;2023-06-22T08:24:22;19.05;;;15.65;;
27412;SDS011;14871;52.702;5.230;2023-06-22T08:26:51;18.67;;;14.32;;
27412;SDS011;14871;52.702;5.230;2023-06-22T08:29:16;19.80;;;14.45;;
27412;SDS011;14871;52.702;5.230;2023-06-22T08:31:42;19.38;;;15.95;;
27412;SDS011;14871;52.702;5.230;2023-06-22T08:34:08;17.63;;;15.50;;
27412;SDS011;14871;52.702;5.230;2023-06-22T08:36:34;15.90;;;14.07;;
27412;SDS011;14871;52.702;5.230;2023-06-22T08:39:03;19.27;;;15.40;;
27412;SDS011;14871;52.702;5.230;2023-06-22T08:41:29;19.45;;;16.23;;
27412;SDS011;14871;52.702;5.230;2023-06-22T08:43:55;20.60;;;14.68;;
27412;SDS011;14871;52.702;5.230;2023-06-22T08:46:22;19.48;;;16.83;;
27412;SDS011;14871;52.702;5.230;2023-06-22T08:48:55;22.80;;;17.05;;
27412;SDS011;14871;52.702;5.230;2023-06-22T08:51:23;21.00;;;18.17;;
27412;SDS011;14871;52.702;5.230;2023-06-22T08:53:49;19.10;;;16.13;;
27412;SDS011;14871;52.702;5.230;2023-06-22T08:56:15;19.98;;;17.85;;
27412;SDS011;14871;52.702;5.230;2023-06-22T08:58:40;20.55;;;17.38;;
27412;SDS011;14871;52.702;5.230;2023-06-22T09:01:06;22.75;;;18.05;;
27412;SDS011;14871;52.702;5.230;2023-06-22T09:03:32;19.58;;;17.40;;
27412;SDS011;14871;52.702;5.230;2023-06-22T09:05:59;22.13;;;19.48;;
27412;SDS011;14871;52.702;5.230;2023-06-22T09:08:25;22.02;;;18.80;;
27412;SDS011;14871;52.702;5.230;2023-06-22T09:10:51;19.58;;;17.48;;
27412;SDS011;14871;52.702;5.230;2023-06-22T09:13:16;22.33;;;18.92;;
27412;SDS011;14871;52.702;5.230;2023-06-22T09:15:42;22.05;;;17.42;;
27412;SDS011;14871;52.702;5.230;2023-06-22T09:18:10;21.60;;;19.13;;
27412;SDS011;14871;52.702;5.230;2023-06-22T09:20:36;19.67;;;16.95;;
27412;SDS011;14871;52.702;5.230;2023-06-22T09:23:02;22.67;;;18.70;;
27412;SDS011;14871;52.702;5.230;2023-06-22T09:25:27;22.17;;;17.80;;
27412;SDS011;14871;52.702;5.230;2023-06-22T09:27:53;19.13;;;16.30;;
27412;SDS011;14871;52.702;5.230;2023-06-22T09:30:19;23.55;;;17.95;;
27412;SDS011;14871;52.702;5.230;2023-06-22T09:32:44;21.13;;;18.67;;
27412;SDS011;14871;52.702;5.230;2023-06-22T09:35:10;24.40;;;19.25;;
27412;SDS011;14871;52.702;5.230;2023-06-22T09:37:38;22.48;;;17.83;;
27412;SDS011;14871;52.702;5.230;2023-06-22T09:40:05;21.20;;;15.90;;
27412;SDS011;14871;52.702;5.230;2023-06-22T09:42:36;21.98;;;18.55;;
27412;SDS011;14871;52.702;5.230;2023-06-22T09:45:02;20.42;;;18.10;;
27412;SDS011;14871;52.702;5.230;2023-06-22T09:47:28;19.83;;;16.67;;
27412;SDS011;14871;52.702;5.230;2023-06-22T09:49:54;33.20;;;18.05;;
27412;SDS011;14871;52.702;5.230;2023-06-22T09:52:20;24.40;;;18.38;;
27412;SDS011;14871;52.702;5.230;2023-06-22T09:54:47;33.17;;;18.90;;
27412;SDS011;14871;52.702;5.230;2023-06-22T09:57:12;28.35;;;19.15;;
27412;SDS011;14871;52.702;5.230;2023-06-22T09:59:38;19.88;;;16.73;;
27412;SDS011;14871;52.702;5.230;2023-06-22T10:02:07;24.55;;;16.90;;
27412;SDS011;14871;52.702;5.230;2023-06-22T10:04:33;21.33;;;17.50;;
27412;SDS011;14871;52.702;5.230;2023-06-22T10:06:59;26.20;;;19.70;;
27412;SDS011;14871;52.702;5.230;2023-06-22T10:09:26;20.67;;;17.30;;
27412;SDS011;14871;52.702;5.230;2023-06-22T10:11:51;20.00;;;16.92;;
27412;SDS011;14871;52.702;5.230;2023-06-22T10:14:17;32.20;;;18.20;;
27412;SDS011;14871;52.702;5.230;2023-06-22T10:16:43;22.40;;;16.98;;
27412;SDS011;14871;52.702;5.230;2023-06-22T10:19:08;67.38;;;21.13;;
27412;SDS011;14871;52.702;5.230;2023-06-22T10:21:34;24.77;;;18.38;;
27412;SDS011;14871;52.702;5.230;2023-06-22T10:24:00;19.23;;;16.02;;
27412;SDS011;14871;52.702;5.230;2023-06-22T10:26:31;19.73;;;16.70;;
27412;SDS011;14871;52.702;5.230;2023-06-22T10:28:57;20.65;;;16.88;;
27412;SDS011;14871;52.702;5.230;2023-06-22T10:31:23;20.15;;;16.02;;
27412;SDS011;14871;52.702;5.230;2023-06-22T10:33:49;19.55;;;14.93;;
27412;SDS011;14871;52.702;5.230;2023-06-22T10:36:15;21.25;;;17.75;;
27412;SDS011;14871;52.702;5.230;2023-06-22T10:38:40;21.45;;;16.63;;
27412;SDS011;14871;52.702;5.230;2023-06-22T10:41:06;21.45;;;16.08;;
27412;SDS011;14871;52.702;5.230;2023-06-22T10:43:32;19.73;;;17.77;;
27412;SDS011;14871;52.702;5.230;2023-06-22T10:45:58;22.05;;;17.67;;
27412;SDS011;14871;52.702;5.230;2023-06-22T10:48:23;18.98;;;17.17;;
27412;SDS011;14871;52.702;5.230;2023-06-22T10:50:49;19.63;;;17.42;;
27412;SDS011;14871;52.702;5.230;2023-06-22T10:53:14;19.98;;;16.42;;
27412;SDS011;14871;52.702;5.230;2023-06-22T10:55:40;17.63;;;15.82;;
27412;SDS011;14871;52.702;5.230;2023-06-22T10:58:06;20.27;;;17.55;;
27412;SDS011;14871;52.702;5.230;2023-06-22T11:00:31;20.75;;;17.40;;
27412;SDS011;14871;52.702;5.230;2023-06-22T11:02:57;17.77;;;15.98;;
27412;SDS011;14871;52.702;5.230;2023-06-22T11:05:23;19.42;;;17.00;;
27412;SDS011;14871;52.702;5.230;2023-06-22T11:07:49;20.10;;;17.30;;
27412;SDS011;14871;52.702;5.230;2023-06-22T11:10:15;19.05;;;17.05;;
27412;SDS011;14871;52.702;5.230;2023-06-22T11:12:41;18.60;;;15.63;;
27412;SDS011;14871;52.702;5.230;2023-06-22T11:15:08;19.73;;;15.02;;
27412;SDS011;14871;52.702;5.230;2023-06-22T11:17:34;16.50;;;14.10;;
27412;SDS011;14871;52.702;5.230;2023-06-22T11:20:00;16.02;;;14.38;;
27412;SDS011;14871;52.702;5.230;2023-06-22T11:22:26;15.75;;;14.18;;
27412;SDS011;14871;52.702;5.230;2023-06-22T11:24:52;16.20;;;14.00;;
27412;SDS011;14871;52.702;5.230;2023-06-22T11:27:18;14.55;;;13.07;;
27412;SDS011;14871;52.702;5.230;2023-06-22T11:29:43;16.35;;;13.80;;
27412;SDS011;14871;52.702;5.230;2023-06-22T11:32:09;16.42;;;12.82;;
27412;SDS011;14871;52.702;5.230;2023-06-22T11:34:35;16.30;;;11.05;;
27412;SDS011;14871;52.702;5.230;2023-06-22T11:37:00;13.40;;;12.02;;
27412;SDS011;14871;52.702;5.230;2023-06-22T11:39:26;14.05;;;12.15;;
27412;SDS011;14871;52.702;5.230;2023-06-22T11:41:52;17.83;;;12.75;;
27412;SDS011;14871;52.702;5.230;2023-06-22T11:44:18;13.38;;;11.65;;
27412;SDS011;14871;52.702;5.230;2023-06-22T11:46:43;13.27;;;11.85;;
27412;SDS011;14871;52.702;5.230;2023-06-22T11:49:09;14.05;;;12.15;;
27412;SDS011;14871;52.702;5.230;2023-06-22T11:51:34;12.00;;;10.73;;
27412;SDS011;14871;52.702;5.230;2023-06-22T11:54:00;14.52;;;11.75;;
27412;SDS011;14871;52.702;5.230;2023-06-22T11:56:27;13.30;;;10.00;;
27412;SDS011;14871;52.702;5.230;2023-06-22T11:58:52;11.95;;;9.52;;
27412;SDS011;14871;52.702;5.230;2023-06-22T12:01:19;13.85;;;9.55;;
27412;SDS011;14871;52.702;5.230;2023-06-22T12:03:44;10.52;;;9.30;;
27412;SDS011;14871;52.702;5.230;2023-06-22T12:06:10;11.32;;;10.27;;
27412;SDS011;14871;52.702;5.230;2023-06-22T12:08:36;13.43;;;10.50;;
27412;SDS011;14871;52.702;5.230;2023-06-22T12:11:02;13.80;;;9.38;;
27412;SDS011;14871;52.702;5.230;2023-06-22T12:13:28;12.23;;;10.55;;
27412;SDS011;14871;52.702;5.230;2023-06-22T12:15:54;12.43;;;10.57;;
27412;SDS011;14871;52.702;5.230;2023-06-22T12:18:20;11.00;;;9.90;;
27412;SDS011;14871;52.702;5.230;2023-06-22T12:20:46;11.15;;;9.57;;
27412;SDS011;14871;52.702;5.230;2023-06-22T12:23:12;13.15;;;9.70;;
27412;SDS011;14871;52.702;5.230;2023-06-22T12:25:38;9.60;;;8.55;;
27412;SDS011;14871;52.702;5.230;2023-06-22T12:28:04;9.98;;;8.23;;
27412;SDS011;14871;52.702;5.230;2023-06-22T12:30:30;13.93;;;8.75;;
27412;SDS011;14871;52.702;5.230;2023-06-22T12:32:57;10.60;;;8.65;;
27412;SDS011;14871;52.702;5.230;2023-06-22T12:35:23;11.85;;;8.13;;
27412;SDS011;14871;52.702;5.230;2023-06-22T12:37:49;9.00;;;8.10;;
27412;SDS011;14871;52.702;5.230;2023-06-22T12:40:14;11.18;;;8.20;;
27412;SDS011;14871;52.702;5.230;2023-06-22T12:42:40;11.98;;;9.07;;
27412;SDS011;14871;52.702;5.230;2023-06-22T12:45:10;9.95;;;8.30;;
27412;SDS011;14871;52.702;5.230;2023-06-22T12:47:36;10.60;;;9.35;;
27412;SDS011;14871;52.702;5.230;2023-06-22T12:50:02;11.57;;;8.80;;
27412;SDS011;14871;52.702;5.230;2023-06-22T12:52:29;11.88;;;8.32;;
27412;SDS011;14871;52.702;5.230;2023-06-22T12:54:58;10.00;;;7.65;;
27412;SDS011;14871;52.702;5.230;2023-06-22T12:57:24;9.88;;;7.70;;
27412;SDS011;14871;52.702;5.230;2023-06-22T12:59:51;8.88;;;7.22;;
27412;SDS011;14871;52.702;5.230;2023-06-22T13:02:17;8.32;;;7.47;;
27412;SDS011;14871;52.702;5.230;2023-06-22T13:04:46;10.85;;;7.90;;
27412;SDS011;14871;52.702;5.230;2023-06-22T13:07:12;11.27;;;7.38;;
27412;SDS011;14871;52.702;5.230;2023-06-22T13:09:37;8.95;;;7.05;;
27412;SDS011;14871;52.702;5.230;2023-06-22T13:12:03;12.82;;;7.55;;
27412;SDS011;14871;52.702;5.230;2023-06-22T13:14:29;10.68;;;7.90;;
27412;SDS011;14871;52.702;5.230;2023-06-22T13:16:55;10.27;;;8.50;;
27412;SDS011;14871;52.702;5.230;2023-06-22T13:19:23;11.63;;;8.23;;
27412;SDS011;14871;52.702;5.230;2023-06-22T13:21:49;11.65;;;8.55;;
27412;SDS011;14871;52.702;5.230;2023-06-22T13:24:15;11.93;;;8.13;;
27412;SDS011;14871;52.702;5.230;2023-06-22T13:26:41;9.52;;;7.85;;
27412;SDS011;14871;52.702;5.230;2023-06-22T13:29:07;14.27;;;8.88;;
27412;SDS011;14871;52.702;5.230;2023-06-22T13:31:32;9.27;;;7.65;;
27412;SDS011;14871;52.702;5.230;2023-06-22T13:33:58;9.98;;;7.10;;
27412;SDS011;14871;52.702;5.230;2023-06-22T13:36:24;10.77;;;7.38;;
27412;SDS011;14871;52.702;5.230;2023-06-22T13:38:49;10.40;;;6.75;;
27412;SDS011;14871;52.702;5.230;2023-06-22T13:41:15;11.07;;;6.55;;
27412;SDS011;14871;52.702;5.230;2023-06-22T13:43:41;9.80;;;7.60;;
27412;SDS011;14871;52.702;5.230;2023-06-22T13:46:10;8.85;;;5.88;;
27412;SDS011;14871;52.702;5.230;2023-06-22T13:48:35;7.93;;;6.40;;
27412;SDS011;14871;52.702;5.230;2023-06-22T13:51:01;8.18;;;6.28;;
27412;SDS011;14871;52.702;5.230;2023-06-22T13:53:27;9.30;;;6.75;;
27412;SDS011;14871;52.702;5.230;2023-06-22T13:55:53;10.48;;;6.35;;
27412;SDS011;14871;52.702;5.230;2023-06-22T13:58:20;8.93;;;6.45;;
27412;SDS011;14871;52.702;5.230;2023-06-22T14:00:46;9.27;;;6.35;;
27412;SDS011;14871;52.702;5.230;2023-06-22T14:03:13;9.77;;;7.55;;
27412;SDS011;14871;52.702;5.230;2023-06-22T14:05:41;7.07;;;6.30;;
27412;SDS011;14871;52.702;5.230;2023-06-22T14:08:07;6.72;;;5.93;;
27412;SDS011;14871;52.702;5.230;2023-06-22T14:10:32;10.93;;;6.38;;
27412;SDS011;14871;52.702;5.230;2023-06-22T14:12:58;7.75;;;6.30;;
27412;SDS011;14871;52.702;5.230;2023-06-22T14:15:25;7.80;;;6.18;;
27412;SDS011;14871;52.702;5.230;2023-06-22T14:17:51;8.52;;;6.45;;
27412;SDS011;14871;52.702;5.230;2023-06-22T14:20:17;7.88;;;6.05;;
27412;SDS011;14871;52.702;5.230;2023-06-22T14:22:43;6.95;;;6.25;;
27412;SDS011;14871;52.702;5.230;2023-06-22T14:25:09;8.00;;;6.47;;